Terminal Aerodrome Forecast
Issued by NWS Sterling, VA

Home | Current Version | Previous Version | Text Only | Print | Product List | Glossary On
Versions: 1 2 3 4 5 6 7 8 9 10 11 12 13 14
000
FTUS41 KLWX 241812 AAA
TAFCHO
TAF AMD
KCHO 241812Z 2418/2518 20013KT P6SM FEW120
     FM242300 20010KT P6SM SCT140
     FM250200 21006KT P6SM SCT140
     FM251000 21004KT P6SM BKN110=

USA.gov is the U.S. government's official web portal to all federal, state and local government web resources and services.